Northern Power — A8TL6 — position and weather

sailwx.info

Track history (hours):
 
Tides and Currents Weather Stations Pressure Air Temp Water Temp Dewpoint Dewpoint Depression Visibility Wind Speed Wind Dir Waves Ship Positions

Northern Power

Last reported at 2016-Jun-29 15:08 UTC. Time now 2016-Jun-29 16:32 UTC.
Position N 01°16' E 103°55'.

Length 264 m; draft 7.8 m.

Type: Cargo ship. MMSI: 636091835.

Date/timePositionNaut miles runAvg speedWind from/ knotsBaromVisibWave heightAir tempDewpointWater temp
2016-Jun-29 15:08N 01°16' E 103°55'0 0.0
2016-Jun-29 13:20N 01°16' E 103°55'0 0.0
2016-Jun-29 10:20N 01°16' E 103°55'0 0.1
2016-Jun-29 09:32N 01°16' E 103°55'0 0.0
2016-Jun-29 03:32N 01°16' E 103°55'0 0.1
2016-Jun-29 02:32N 01°16' E 103°55'0 0.0
2016-Jun-29 01:32N 01°16' E 103°55'0 0.0
2016-Jun-29 00:29N 01°16' E 103°55'0 0.0
2016-Jun-28 23:32N 01°16' E 103°55'0 0.1
2016-Jun-28 22:20N 01°16' E 103°55'0 0.0
2016-Jun-28 20:32N 01°16' E 103°55'0 0.0
2016-Jun-28 19:26N 01°16' E 103°55'0 0.0
2016-Jun-28 18:32N 01°16' E 103°55'0 0.0
2016-Jun-28 16:20N 01°16' E 103°55'0 0.1
2016-Jun-28 15:20N 01°16' E 103°55'0 0.0
2016-Jun-28 13:29N 01°16' E 103°55'0 0.0
2016-Jun-28 12:20N 01°16' E 103°55'0 0.0
2016-Jun-28 11:32N 01°16' E 103°55'0 0.0
2016-Jun-28 10:32N 01°16' E 103°55'0 0.1
2016-Jun-28 09:32N 01°16' E 103°55'0 0.0
2016-Jun-28 08:26N 01°16' E 103°55'0 0.0
2016-Jun-28 07:14N 01°16' E 103°55'0 0.0
2016-Jun-28 06:26N 01°16' E 103°55'0 0.0
2016-Jun-28 04:20N 01°16' E 103°55'0 0.0
2016-Jun-28 03:23N 01°16' E 103°55'0 0.1
2016-Jun-28 02:26N 01°16' E 103°55'0 0.0
2016-Jun-27 20:32N 01°16' E 103°55'0 0.0
2016-Jun-27 18:32N 01°16' E 103°55'0 0.0
2016-Jun-27 15:31N 01°16' E 103°55'0 0.0
2016-Jun-27 14:32N 01°16' E 103°55'0 0.0
2016-Jun-27 07:08N 01°16' E 103°55'0 0.1
2016-Jun-27 06:32N 01°16' E 103°55'0 0.0
2016-Jun-27 05:32N 01°16' E 103°55'0 0.0
2016-Jun-27 04:31N 01°16' E 103°55'0 0.0
2016-Jun-27 03:14N 01°16' E 103°55'3 4.7
2016-Jun-27 02:33N 01°14' E 103°53'3 2.5
2016-Jun-27 01:31N 01°16' E 103°50'0 0.0
2016-Jun-27 00:31N 01°16' E 103°50'0 0.0
2016-Jun-26 23:28N 01°16' E 103°50'0 0.0
2016-Jun-26 22:28N 01°16' E 103°50'0 0.0
2016-Jun-26 21:25N 01°16' E 103°50'0 0.0
2016-Jun-26 20:31N 01°16' E 103°50'0 0.0
2016-Jun-26 19:25N 01°16' E 103°50'0 0.0
2016-Jun-26 18:25N 01°16' E 103°50'2 2.9
2016-Jun-26 17:33N 01°14' E 103°53'6 6.0
2016-Jun-26 16:33N 01°10' E 103°48'85 7.7
2016-Jun-26 05:30N 01°43' E 102°31'1313.5
2016-Jun-26 04:33N 01°51' E 102°20'  
Track history (hours):
 
Tides and Currents Weather Stations Pressure Air Temp Water Temp Dewpoint Dewpoint Depression Visibility Wind Speed Wind Dir Waves Ship Positions

Northern Power

Last reported at 2016-Jun-29 15:08 UTC. Time now 2016-Jun-29 16:32 UTC.
Position N 01°16' E 103°55'.

Length 264 m; draft 7.8 m.

Type: Cargo ship. MMSI: 636091835.

Date/timePositionNaut miles runAvg speedWind from/ knotsBaromVisibWave heightAir tempDewpointWater temp
2016-Jun-29 15:08N 01°16' E 103°55'0 0.0
2016-Jun-29 13:20N 01°16' E 103°55'0 0.0
2016-Jun-29 10:20N 01°16' E 103°55'0 0.1
2016-Jun-29 09:32N 01°16' E 103°55'0 0.0
2016-Jun-29 03:32N 01°16' E 103°55'0 0.1
2016-Jun-29 02:32N 01°16' E 103°55'0 0.0
2016-Jun-29 01:32N 01°16' E 103°55'0 0.0
2016-Jun-29 00:29N 01°16' E 103°55'0 0.0
2016-Jun-28 23:32N 01°16' E 103°55'0 0.1
2016-Jun-28 22:20N 01°16' E 103°55'0 0.0
2016-Jun-28 20:32N 01°16' E 103°55'0 0.0
2016-Jun-28 19:26N 01°16' E 103°55'0 0.0
2016-Jun-28 18:32N 01°16' E 103°55'0 0.0
2016-Jun-28 16:20N 01°16' E 103°55'0 0.1
2016-Jun-28 15:20N 01°16' E 103°55'0 0.0
2016-Jun-28 13:29N 01°16' E 103°55'0 0.0
2016-Jun-28 12:20N 01°16' E 103°55'0 0.0
2016-Jun-28 11:32N 01°16' E 103°55'0 0.0
2016-Jun-28 10:32N 01°16' E 103°55'0 0.1
2016-Jun-28 09:32N 01°16' E 103°55'0 0.0
2016-Jun-28 08:26N 01°16' E 103°55'0 0.0
2016-Jun-28 07:14N 01°16' E 103°55'0 0.0
2016-Jun-28 06:26N 01°16' E 103°55'0 0.0
2016-Jun-28 04:20N 01°16' E 103°55'0 0.0
2016-Jun-28 03:23N 01°16' E 103°55'0 0.1
2016-Jun-28 02:26N 01°16' E 103°55'0 0.0
2016-Jun-27 20:32N 01°16' E 103°55'0 0.0
2016-Jun-27 18:32N 01°16' E 103°55'0 0.0
2016-Jun-27 15:31N 01°16' E 103°55'0 0.0
2016-Jun-27 14:32N 01°16' E 103°55'0 0.0
2016-Jun-27 07:08N 01°16' E 103°55'0 0.1
2016-Jun-27 06:32N 01°16' E 103°55'0 0.0
2016-Jun-27 05:32N 01°16' E 103°55'0 0.0
2016-Jun-27 04:31N 01°16' E 103°55'0 0.0
2016-Jun-27 03:14N 01°16' E 103°55'3 4.7
2016-Jun-27 02:33N 01°14' E 103°53'3 2.5
2016-Jun-27 01:31N 01°16' E 103°50'0 0.0
2016-Jun-27 00:31N 01°16' E 103°50'0 0.0
2016-Jun-26 23:28N 01°16' E 103°50'0 0.0
2016-Jun-26 22:28N 01°16' E 103°50'0 0.0
2016-Jun-26 21:25N 01°16' E 103°50'0 0.0
2016-Jun-26 20:31N 01°16' E 103°50'0 0.0
2016-Jun-26 19:25N 01°16' E 103°50'0 0.0
2016-Jun-26 18:25N 01°16' E 103°50'2 2.9
2016-Jun-26 17:33N 01°14' E 103°53'6 6.0
2016-Jun-26 16:33N 01°10' E 103°48'85 7.7
2016-Jun-26 05:30N 01°43' E 102°31'1313.5
2016-Jun-26 04:33N 01°51' E 102°20'  

Dump ship's entire track history